sensor_id;sensor_type;location;lat;lon;timestamp;pressure;altitude;pressure_sealevel;temperature;humidity
49102;BME280;34913;47.520;19.186;2023-07-08T00:02:08;100428.44;;;18.75;68.58
49102;BME280;34913;47.520;19.186;2023-07-08T00:04:34;100424.09;;;18.74;68.58
49102;BME280;34913;47.520;19.186;2023-07-08T00:07:00;100423.75;;;18.68;68.61
49102;BME280;34913;47.520;19.186;2023-07-08T00:09:25;100430.44;;;18.64;69.23
49102;BME280;34913;47.520;19.186;2023-07-08T00:11:50;100421.03;;;18.60;69.16
49102;BME280;34913;47.520;19.186;2023-07-08T00:14:16;100423.88;;;18.59;69.17
49102;BME280;34913;47.520;19.186;2023-07-08T00:16:42;100422.69;;;18.53;69.55
49102;BME280;34913;47.520;19.186;2023-07-08T00:19:08;100421.38;;;18.49;70.17
49102;BME280;34913;47.520;19.186;2023-07-08T00:21:35;100424.38;;;18.46;70.21
49102;BME280;34913;47.520;19.186;2023-07-08T00:24:00;100425.91;;;18.49;70.47
49102;BME280;34913;47.520;19.186;2023-07-08T00:26:28;100435.47;;;18.43;70.22
49102;BME280;34913;47.520;19.186;2023-07-08T00:28:55;100426.22;;;18.37;71.10
49102;BME280;34913;47.520;19.186;2023-07-08T00:31:22;100418.81;;;18.31;71.26
49102;BME280;34913;47.520;19.186;2023-07-08T00:33:52;100426.38;;;18.28;70.61
49102;BME280;34913;47.520;19.186;2023-07-08T00:36:20;100421.66;;;18.22;70.92
49102;BME280;34913;47.520;19.186;2023-07-08T00:38:46;100426.53;;;18.10;70.99
49102;BME280;34913;47.520;19.186;2023-07-08T00:41:16;100424.31;;;18.05;71.62
49102;BME280;34913;47.520;19.186;2023-07-08T00:43:53;100428.34;;;18.01;71.68
49102;BME280;34913;47.520;19.186;2023-07-08T00:51:24;100416.06;;;17.91;71.78
49102;BME280;34913;47.520;19.186;2023-07-08T00:53:50;100417.91;;;17.90;71.97
49102;BME280;34913;47.520;19.186;2023-07-08T00:56:36;100415.72;;;17.85;72.40
49102;BME280;34913;47.520;19.186;2023-07-08T00:59:07;100407.66;;;17.85;72.48
49102;BME280;34913;47.520;19.186;2023-07-08T01:01:36;100404.13;;;17.85;72.71
49102;BME280;34913;47.520;19.186;2023-07-08T01:04:13;100416.03;;;17.82;73.07
49102;BME280;34913;47.520;19.186;2023-07-08T01:06:42;100402.28;;;17.77;73.78
49102;BME280;34913;47.520;19.186;2023-07-08T01:09:11;100413.03;;;17.77;74.06
49102;BME280;34913;47.520;19.186;2023-07-08T01:11:40;100418.03;;;17.72;74.74
49102;BME280;34913;47.520;19.186;2023-07-08T01:14:07;100419.31;;;17.68;74.97
49102;BME280;34913;47.520;19.186;2023-07-08T01:16:34;100415.13;;;17.66;75.21
49102;BME280;34913;47.520;19.186;2023-07-08T01:19:01;100412.81;;;17.71;75.15
49102;BME280;34913;47.520;19.186;2023-07-08T01:21:37;100414.91;;;17.59;75.74
49102;BME280;34913;47.520;19.186;2023-07-08T01:24:06;100411.38;;;17.58;75.92
49102;BME280;34913;47.520;19.186;2023-07-08T01:26:35;100420.91;;;17.53;76.17
49102;BME280;34913;47.520;19.186;2023-07-08T01:29:03;100414.53;;;17.46;76.84
49102;BME280;34913;47.520;19.186;2023-07-08T01:31:29;100418.19;;;17.45;76.67
49102;BME280;34913;47.520;19.186;2023-07-08T01:33:55;100416.19;;;17.39;77.25
49102;BME280;34913;47.520;19.186;2023-07-08T01:36:21;100415.88;;;17.50;76.73
49102;BME280;34913;47.520;19.186;2023-07-08T01:38:46;100421.59;;;17.47;76.76
49102;BME280;34913;47.520;19.186;2023-07-08T01:41:15;100414.00;;;17.42;77.87
49102;BME280;34913;47.520;19.186;2023-07-08T01:43:41;100411.44;;;17.33;78.24
49102;BME280;34913;47.520;19.186;2023-07-08T01:46:12;100409.72;;;17.23;78.39
49102;BME280;34913;47.520;19.186;2023-07-08T01:48:41;100411.72;;;17.21;77.82
49102;BME280;34913;47.520;19.186;2023-07-08T01:51:08;100407.31;;;17.12;78.11
49102;BME280;34913;47.520;19.186;2023-07-08T01:53:40;100404.28;;;17.07;78.44
49102;BME280;34913;47.520;19.186;2023-07-08T01:56:08;100405.75;;;17.01;78.41
49102;BME280;34913;47.520;19.186;2023-07-08T01:58:34;100406.41;;;17.03;78.40
49102;BME280;34913;47.520;19.186;2023-07-08T02:00:59;100406.75;;;17.00;78.01
49102;BME280;34913;47.520;19.186;2023-07-08T02:03:26;100396.81;;;16.93;80.15
49102;BME280;34913;47.520;19.186;2023-07-08T02:05:52;100405.63;;;16.85;81.14
49102;BME280;34913;47.520;19.186;2023-07-08T02:08:18;100398.91;;;16.81;81.43
49102;BME280;34913;47.520;19.186;2023-07-08T02:10:50;100405.75;;;16.76;82.08
49102;BME280;34913;47.520;19.186;2023-07-08T02:13:16;100408.56;;;16.74;82.41
49102;BME280;34913;47.520;19.186;2023-07-08T02:15:41;100401.53;;;16.73;82.68
49102;BME280;34913;47.520;19.186;2023-07-08T02:18:07;100406.41;;;16.78;82.26
49102;BME280;34913;47.520;19.186;2023-07-08T02:20:32;100406.72;;;16.74;82.07
49102;BME280;34913;47.520;19.186;2023-07-08T02:22:57;100403.75;;;16.78;81.91
49102;BME280;34913;47.520;19.186;2023-07-08T02:25:23;100396.22;;;16.63;82.59
49102;BME280;34913;47.520;19.186;2023-07-08T02:27:48;100401.44;;;16.65;82.19
49102;BME280;34913;47.520;19.186;2023-07-08T02:30:14;100406.94;;;16.63;82.53
49102;BME280;34913;47.520;19.186;2023-07-08T02:32:39;100404.72;;;16.59;82.49
49102;BME280;34913;47.520;19.186;2023-07-08T02:35:06;100404.28;;;16.63;82.29
49102;BME280;34913;47.520;19.186;2023-07-08T02:37:32;100410.47;;;16.64;82.39
49102;BME280;34913;47.520;19.186;2023-07-08T02:39:58;100406.44;;;16.60;82.62
49102;BME280;34913;47.520;19.186;2023-07-08T02:42:23;100419.28;;;16.56;82.96
49102;BME280;34913;47.520;19.186;2023-07-08T02:44:49;100422.97;;;16.55;83.69
49102;BME280;34913;47.520;19.186;2023-07-08T02:47:14;100415.38;;;16.51;83.31
49102;BME280;34913;47.520;19.186;2023-07-08T02:49:40;100413.34;;;16.44;83.22
49102;BME280;34913;47.520;19.186;2023-07-08T02:52:05;100419.53;;;16.45;82.42
49102;BME280;34913;47.520;19.186;2023-07-08T02:54:31;100420.53;;;16.44;82.26
49102;BME280;34913;47.520;19.186;2023-07-08T02:56:56;100418.38;;;16.47;82.60
49102;BME280;34913;47.520;19.186;2023-07-08T02:59:22;100418.97;;;16.41;82.82
49102;BME280;34913;47.520;19.186;2023-07-08T03:01:47;100424.34;;;16.41;82.76
49102;BME280;34913;47.520;19.186;2023-07-08T03:04:13;100425.91;;;16.44;82.94
49102;BME280;34913;47.520;19.186;2023-07-08T03:06:43;100426.56;;;16.46;83.03
49102;BME280;34913;47.520;19.186;2023-07-08T03:09:10;100422.91;;;16.47;83.08
49102;BME280;34913;47.520;19.186;2023-07-08T03:11:37;100431.31;;;16.52;83.56
49102;BME280;34913;47.520;19.186;2023-07-08T03:14:04;100426.25;;;16.49;83.66
49102;BME280;34913;47.520;19.186;2023-07-08T03:16:30;100429.41;;;16.44;84.25
49102;BME280;34913;47.520;19.186;2023-07-08T03:18:55;100425.91;;;16.44;84.82
49102;BME280;34913;47.520;19.186;2023-07-08T03:21:20;100436.06;;;16.40;85.05
49102;BME280;34913;47.520;19.186;2023-07-08T03:23:48;100439.34;;;16.34;85.96
49102;BME280;34913;47.520;19.186;2023-07-08T03:26:25;100435.31;;;16.30;86.08
49102;BME280;34913;47.520;19.186;2023-07-08T03:28:51;100434.47;;;16.30;86.35
49102;BME280;34913;47.520;19.186;2023-07-08T03:31:17;100437.16;;;16.30;86.45
49102;BME280;34913;47.520;19.186;2023-07-08T03:33:43;100437.66;;;16.33;86.38
49102;BME280;34913;47.520;19.186;2023-07-08T03:36:14;100429.19;;;16.38;86.37
49102;BME280;34913;47.520;19.186;2023-07-08T03:38:54;100446.63;;;16.42;86.34
49102;BME280;34913;47.520;19.186;2023-07-08T03:41:20;100452.13;;;16.40;86.53
49102;BME280;34913;47.520;19.186;2023-07-08T03:43:46;100450.28;;;16.41;86.45
49102;BME280;34913;47.520;19.186;2023-07-08T03:46:12;100448.78;;;16.38;85.84
49102;BME280;34913;47.520;19.186;2023-07-08T03:48:38;100448.63;;;16.40;86.61
49102;BME280;34913;47.520;19.186;2023-07-08T03:51:07;100452.53;;;16.45;86.24
49102;BME280;34913;47.520;19.186;2023-07-08T03:53:33;100447.84;;;16.47;86.07
49102;BME280;34913;47.520;19.186;2023-07-08T03:55:59;100453.84;;;16.59;85.89
49102;BME280;34913;47.520;19.186;2023-07-08T03:58:24;100447.16;;;16.63;85.58
49102;BME280;34913;47.520;19.186;2023-07-08T04:00:50;100454.03;;;16.66;86.05
49102;BME280;34913;47.520;19.186;2023-07-08T04:03:15;100451.59;;;16.72;85.85
49102;BME280;34913;47.520;19.186;2023-07-08T04:05:40;100447.31;;;16.80;86.01
49102;BME280;34913;47.520;19.186;2023-07-08T04:08:06;100449.88;;;16.89;85.80
49102;BME280;34913;47.520;19.186;2023-07-08T04:10:31;100446.88;;;17.10;84.29
49102;BME280;34913;47.520;19.186;2023-07-08T04:12:56;100448.13;;;17.24;84.16
49102;BME280;34913;47.520;19.186;2023-07-08T04:15:22;100448.53;;;17.37;83.13
49102;BME280;34913;47.520;19.186;2023-07-08T04:17:51;100448.69;;;17.70;80.92
49102;BME280;34913;47.520;19.186;2023-07-08T04:20:18;100452.53;;;18.01;79.02
49102;BME280;34913;47.520;19.186;2023-07-08T04:22:44;100446.38;;;18.25;78.31
49102;BME280;34913;47.520;19.186;2023-07-08T04:25:11;100458.16;;;18.49;76.95
49102;BME280;34913;47.520;19.186;2023-07-08T04:27:38;100454.81;;;18.95;74.94
49102;BME280;34913;47.520;19.186;2023-07-08T04:30:04;100458.81;;;19.24;72.72
49102;BME280;34913;47.520;19.186;2023-07-08T04:32:30;100459.25;;;19.52;70.37
49102;BME280;34913;47.520;19.186;2023-07-08T04:34:56;100460.59;;;19.95;68.55
49102;BME280;34913;47.520;19.186;2023-07-08T04:37:21;100459.66;;;20.42;66.75
49102;BME280;34913;47.520;19.186;2023-07-08T04:39:46;100459.63;;;20.73;64.25
49102;BME280;34913;47.520;19.186;2023-07-08T04:42:13;100454.03;;;21.12;62.14
49102;BME280;34913;47.520;19.186;2023-07-08T04:44:41;100454.41;;;21.24;61.57
49102;BME280;34913;47.520;19.186;2023-07-08T04:47:07;100452.59;;;21.54;60.96
49102;BME280;34913;47.520;19.186;2023-07-08T04:49:35;100454.50;;;22.05;58.69
49102;BME280;34913;47.520;19.186;2023-07-08T04:52:01;100453.78;;;22.32;57.61
49102;BME280;34913;47.520;19.186;2023-07-08T04:54:28;100462.69;;;22.47;56.62
49102;BME280;34913;47.520;19.186;2023-07-08T04:56:53;100463.44;;;22.63;55.87
49102;BME280;34913;47.520;19.186;2023-07-08T04:59:25;100467.34;;;22.81;56.18
49102;BME280;34913;47.520;19.186;2023-07-08T05:01:50;100460.53;;;22.64;57.25
49102;BME280;34913;47.520;19.186;2023-07-08T05:04:20;100463.59;;;22.76;55.91
49102;BME280;34913;47.520;19.186;2023-07-08T05:06:46;100473.94;;;23.15;55.92
49102;BME280;34913;47.520;19.186;2023-07-08T05:09:12;100473.69;;;23.45;54.65
49102;BME280;34913;47.520;19.186;2023-07-08T05:11:37;100476.28;;;23.94;53.06
49102;BME280;34913;47.520;19.186;2023-07-08T05:14:03;100477.31;;;24.34;51.16
49102;BME280;34913;47.520;19.186;2023-07-08T05:16:29;100476.63;;;24.26;51.55
49102;BME280;34913;47.520;19.186;2023-07-08T05:18:55;100471.88;;;24.41;51.75
49102;BME280;34913;47.520;19.186;2023-07-08T05:21:21;100469.81;;;24.49;52.17
49102;BME280;34913;47.520;19.186;2023-07-08T05:23:47;100482.16;;;24.72;51.54
49102;BME280;34913;47.520;19.186;2023-07-08T05:26:16;100477.75;;;24.51;52.38
49102;BME280;34913;47.520;19.186;2023-07-08T05:28:42;100492.72;;;24.40;51.89
49102;BME280;34913;47.520;19.186;2023-07-08T05:31:08;100488.34;;;24.33;52.97
49102;BME280;34913;47.520;19.186;2023-07-08T05:33:33;100488.38;;;23.91;53.69
49102;BME280;34913;47.520;19.186;2023-07-08T05:35:59;100494.47;;;23.31;55.15
49102;BME280;34913;47.520;19.186;2023-07-08T05:38:25;100492.03;;;23.43;56.67
49102;BME280;34913;47.520;19.186;2023-07-08T05:40:54;100490.94;;;23.37;56.56
49102;BME280;34913;47.520;19.186;2023-07-08T05:43:20;100485.59;;;23.16;57.09
49102;BME280;34913;47.520;19.186;2023-07-08T05:45:46;100491.66;;;22.96;57.56
49102;BME280;34913;47.520;19.186;2023-07-08T05:48:12;100494.63;;;23.29;57.06
49102;BME280;34913;47.520;19.186;2023-07-08T05:50:39;100492.28;;;23.48;54.26
49102;BME280;34913;47.520;19.186;2023-07-08T05:53:04;100498.16;;;23.58;53.54
49102;BME280;34913;47.520;19.186;2023-07-08T05:55:31;100507.25;;;23.72;53.99
49102;BME280;34913;47.520;19.186;2023-07-08T05:57:57;100508.03;;;24.07;53.63
49102;BME280;34913;47.520;19.186;2023-07-08T06:00:22;100502.97;;;24.38;52.40
49102;BME280;34913;47.520;19.186;2023-07-08T06:02:48;100497.78;;;24.63;51.04
49102;BME280;34913;47.520;19.186;2023-07-08T06:05:13;100505.09;;;24.56;51.11
49102;BME280;34913;47.520;19.186;2023-07-08T06:07:38;100504.63;;;24.39;52.31
49102;BME280;34913;47.520;19.186;2023-07-08T06:10:04;100506.09;;;24.35;53.91
49102;BME280;34913;47.520;19.186;2023-07-08T06:12:30;100501.09;;;24.45;52.12
49102;BME280;34913;47.520;19.186;2023-07-08T06:14:56;100502.00;;;24.66;50.80
49102;BME280;34913;47.520;19.186;2023-07-08T06:17:21;100504.91;;;24.77;49.76
49102;BME280;34913;47.520;19.186;2023-07-08T06:19:47;100505.88;;;24.37;51.33
49102;BME280;34913;47.520;19.186;2023-07-08T06:22:12;100498.75;;;24.29;52.34
49102;BME280;34913;47.520;19.186;2023-07-08T06:24:38;100507.16;;;24.34;53.08
49102;BME280;34913;47.520;19.186;2023-07-08T06:27:03;100512.56;;;24.34;51.26
49102;BME280;34913;47.520;19.186;2023-07-08T06:29:29;100516.00;;;24.15;51.92
49102;BME280;34913;47.520;19.186;2023-07-08T06:31:54;100514.53;;;24.67;51.26
49102;BME280;34913;47.520;19.186;2023-07-08T06:34:20;100501.38;;;24.70;50.22
49102;BME280;34913;47.520;19.186;2023-07-08T06:36:48;100509.56;;;24.97;49.81
49102;BME280;34913;47.520;19.186;2023-07-08T06:39:14;100498.28;;;25.20;48.41
49102;BME280;34913;47.520;19.186;2023-07-08T06:41:39;100496.34;;;25.60;49.91
49102;BME280;34913;47.520;19.186;2023-07-08T06:44:05;100490.03;;;25.79;46.84
49102;BME280;34913;47.520;19.186;2023-07-08T06:46:30;100489.41;;;25.84;47.86
49102;BME280;34913;47.520;19.186;2023-07-08T06:48:56;100495.84;;;25.89;47.02
49102;BME280;34913;47.520;19.186;2023-07-08T06:51:21;100498.31;;;26.04;45.43
49102;BME280;34913;47.520;19.186;2023-07-08T06:53:47;100498.44;;;26.23;45.38
49102;BME280;34913;47.520;19.186;2023-07-08T06:56:12;100505.25;;;26.77;46.04
49102;BME280;34913;47.520;19.186;2023-07-08T06:58:38;100500.22;;;27.12;44.51
49102;BME280;34913;47.520;19.186;2023-07-08T07:01:03;100493.00;;;27.17;42.87
49102;BME280;34913;47.520;19.186;2023-07-08T07:03:29;100495.66;;;27.49;43.23
49102;BME280;34913;47.520;19.186;2023-07-08T07:05:54;100492.03;;;27.55;42.42
49102;BME280;34913;47.520;19.186;2023-07-08T07:08:20;100494.69;;;27.43;41.66
49102;BME280;34913;47.520;19.186;2023-07-08T07:10:45;100490.63;;;27.71;42.77
49102;BME280;34913;47.520;19.186;2023-07-08T07:13:10;100492.44;;;27.95;41.78
49102;BME280;34913;47.520;19.186;2023-07-08T07:15:36;100484.38;;;28.37;40.82
49102;BME280;34913;47.520;19.186;2023-07-08T07:18:02;100490.34;;;28.27;40.92
49102;BME280;34913;47.520;19.186;2023-07-08T07:20:27;100488.19;;;27.99;40.60
49102;BME280;34913;47.520;19.186;2023-07-08T07:22:53;100486.28;;;28.18;39.39
49102;BME280;34913;47.520;19.186;2023-07-08T07:25:19;100484.03;;;28.27;40.25
49102;BME280;34913;47.520;19.186;2023-07-08T07:27:44;100492.59;;;28.49;40.47
49102;BME280;34913;47.520;19.186;2023-07-08T07:30:10;100487.53;;;28.64;39.94
49102;BME280;34913;47.520;19.186;2023-07-08T07:32:41;100483.16;;;28.75;39.44
49102;BME280;34913;47.520;19.186;2023-07-08T07:35:07;100487.41;;;29.01;39.90
49102;BME280;34913;47.520;19.186;2023-07-08T07:37:33;100488.38;;;29.18;37.06
49102;BME280;34913;47.520;19.186;2023-07-08T07:39:58;100481.25;;;29.40;34.33
49102;BME280;34913;47.520;19.186;2023-07-08T07:42:26;100485.44;;;29.55;35.98
49102;BME280;34913;47.520;19.186;2023-07-08T07:44:52;100483.75;;;29.54;35.25
49102;BME280;34913;47.520;19.186;2023-07-08T07:47:17;100483.38;;;29.73;33.02
49102;BME280;34913;47.520;19.186;2023-07-08T07:49:43;100476.66;;;29.93;32.73
49102;BME280;34913;47.520;19.186;2023-07-08T07:52:08;100477.16;;;29.90;32.37
49102;BME280;34913;47.520;19.186;2023-07-08T07:54:36;100478.66;;;29.57;31.86
49102;BME280;34913;47.520;19.186;2023-07-08T07:57:02;100481.84;;;29.54;33.06
49102;BME280;34913;47.520;19.186;2023-07-08T07:59:27;100474.09;;;29.74;32.59
49102;BME280;34913;47.520;19.186;2023-07-08T08:01:53;100469.75;;;29.90;34.23
49102;BME280;34913;47.520;19.186;2023-07-08T08:04:18;100468.44;;;30.33;33.75
49102;BME280;34913;47.520;19.186;2023-07-08T08:06:43;100472.50;;;30.59;33.17
49102;BME280;34913;47.520;19.186;2023-07-08T08:09:09;100461.81;;;30.74;32.91
49102;BME280;34913;47.520;19.186;2023-07-08T08:11:34;100468.19;;;30.80;33.26
49102;BME280;34913;47.520;19.186;2023-07-08T08:14:00;100465.66;;;30.73;33.28
49102;BME280;34913;47.520;19.186;2023-07-08T08:16:26;100459.25;;;30.68;32.98
49102;BME280;34913;47.520;19.186;2023-07-08T08:18:52;100464.59;;;30.63;31.88
49102;BME280;34913;47.520;19.186;2023-07-08T08:21:17;100462.09;;;30.44;31.17
49102;BME280;34913;47.520;19.186;2023-07-08T08:23:42;100463.91;;;30.84;31.88
49102;BME280;34913;47.520;19.186;2023-07-08T08:26:08;100461.56;;;30.93;31.90
49102;BME280;34913;47.520;19.186;2023-07-08T08:28:34;100465.25;;;30.53;30.03
49102;BME280;34913;47.520;19.186;2023-07-08T08:30:59;100461.47;;;30.71;31.88
49102;BME280;34913;47.520;19.186;2023-07-08T08:33:24;100458.00;;;30.47;30.75
49102;BME280;34913;47.520;19.186;2023-07-08T08:35:50;100451.31;;;29.97;29.35
49102;BME280;34913;47.520;19.186;2023-07-08T08:38:15;100459.13;;;29.42;30.64
49102;BME280;34913;47.520;19.186;2023-07-08T08:40:43;100454.50;;;29.54;30.32
49102;BME280;34913;47.520;19.186;2023-07-08T08:43:22;100458.13;;;29.83;31.20
49102;BME280;34913;47.520;19.186;2023-07-08T08:45:57;100448.31;;;30.11;31.18
49102;BME280;34913;47.520;19.186;2023-07-08T08:48:26;100454.38;;;30.01;30.76
49102;BME280;34913;47.520;19.186;2023-07-08T08:51:03;100451.81;;;30.23;29.15
49102;BME280;34913;47.520;19.186;2023-07-08T08:53:32;100456.22;;;30.52;28.68
49102;BME280;34913;47.520;19.186;2023-07-08T08:56:20;100456.66;;;30.78;28.47
49102;BME280;34913;47.520;19.186;2023-07-08T09:01:55;100448.53;;;31.00;28.81
49102;BME280;34913;47.520;19.186;2023-07-08T09:04:25;100450.09;;;31.12;29.21
49102;BME280;34913;47.520;19.186;2023-07-08T09:06:58;100448.53;;;30.66;30.36
49102;BME280;34913;47.520;19.186;2023-07-08T09:09:32;100449.84;;;30.80;28.86
49102;BME280;34913;47.520;19.186;2023-07-08T09:12:06;100441.13;;;31.00;29.16
49102;BME280;34913;47.520;19.186;2023-07-08T09:14:36;100441.47;;;30.70;28.85
49102;BME280;34913;47.520;19.186;2023-07-08T09:20:25;100436.75;;;30.82;28.10
49102;BME280;34913;47.520;19.186;2023-07-08T09:23:01;100442.97;;;30.78;29.61
49102;BME280;34913;47.520;19.186;2023-07-08T09:26:09;100440.75;;;30.63;28.89
49102;BME280;34913;47.520;19.186;2023-07-08T09:28:43;100437.56;;;31.00;31.30
49102;BME280;34913;47.520;19.186;2023-07-08T09:31:22;100443.44;;;31.25;30.32
49102;BME280;34913;47.520;19.186;2023-07-08T09:33:54;100438.94;;;31.36;26.96
49102;BME280;34913;47.520;19.186;2023-07-08T09:36:29;100439.47;;;30.99;27.71
49102;BME280;34913;47.520;19.186;2023-07-08T09:38:55;100442.63;;;31.08;29.64
49102;BME280;34913;47.520;19.186;2023-07-08T09:41:34;100428.84;;;30.86;29.35
49102;BME280;34913;47.520;19.186;2023-07-08T09:44:27;100443.75;;;31.12;31.22
49102;BME280;34913;47.520;19.186;2023-07-08T09:46:58;100435.75;;;31.22;29.59
49102;BME280;34913;47.520;19.186;2023-07-08T09:49:26;100436.56;;;31.06;29.54
49102;BME280;34913;47.520;19.186;2023-07-08T09:51:53;100442.38;;;30.76;27.71
49102;BME280;34913;47.520;19.186;2023-07-08T09:54:23;100434.84;;;30.38;29.45
49102;BME280;34913;47.520;19.186;2023-07-08T09:56:59;100437.69;;;30.14;30.29
49102;BME280;34913;47.520;19.186;2023-07-08T09:59:31;100435.56;;;30.05;29.74
49102;BME280;34913;47.520;19.186;2023-07-08T10:02:00;100436.13;;;29.78;30.73
49102;BME280;34913;47.520;19.186;2023-07-08T10:04:26;100433.91;;;29.63;30.50
49102;BME280;34913;47.520;19.186;2023-07-08T10:06:54;100440.84;;;29.19;29.71
49102;BME280;34913;47.520;19.186;2023-07-08T10:09:23;100435.47;;;29.12;32.32
49102;BME280;34913;47.520;19.186;2023-07-08T10:11:58;100426.81;;;29.15;30.38
49102;BME280;34913;47.520;19.186;2023-07-08T10:14:31;100421.78;;;29.59;32.45
49102;BME280;34913;47.520;19.186;2023-07-08T10:16:59;100425.53;;;30.22;32.97
49102;BME280;34913;47.520;19.186;2023-07-08T10:19:24;100417.44;;;30.61;30.28
49102;BME280;34913;47.520;19.186;2023-07-08T10:27:02;100413.16;;;30.81;29.00
49102;BME280;34913;47.520;19.186;2023-07-08T10:32:39;100420.59;;;30.52;27.91
49102;BME280;34913;47.520;19.186;2023-07-08T10:35:16;100409.16;;;30.72;29.28
49102;BME280;34913;47.520;19.186;2023-07-08T10:38:54;100412.50;;;30.74;29.09
49102;BME280;34913;47.520;19.186;2023-07-08T10:40:48;100410.03;;;30.61;27.78
49102;BME280;34913;47.520;19.186;2023-07-08T10:43:25;100406.53;;;30.32;27.80
49102;BME280;34913;47.520;19.186;2023-07-08T11:07:51;100380.31;;;31.64;27.97
49102;BME280;34913;47.520;19.186;2023-07-08T11:13:12;100381.66;;;31.61;29.65
49102;BME280;34913;47.520;19.186;2023-07-08T11:15:56;100389.50;;;31.75;26.93
49102;BME280;34913;47.520;19.186;2023-07-08T11:18:40;100374.94;;;31.74;28.07
49102;BME280;34913;47.520;19.186;2023-07-08T11:21:24;100382.19;;;31.80;27.45
49102;BME280;34913;47.520;19.186;2023-07-08T11:24:08;100374.78;;;31.81;28.41
49102;BME280;34913;47.520;19.186;2023-07-08T11:29:24;100373.09;;;30.47;29.05
49102;BME280;34913;47.520;19.186;2023-07-08T11:31:52;100373.59;;;29.98;29.48
49102;BME280;34913;47.520;19.186;2023-07-08T11:34:19;100373.38;;;29.48;30.62
49102;BME280;34913;47.520;19.186;2023-07-08T11:36:47;100361.91;;;29.11;30.40
49102;BME280;34913;47.520;19.186;2023-07-08T11:39:33;100367.47;;;29.39;32.11
49102;BME280;34913;47.520;19.186;2023-07-08T11:42:11;100360.63;;;29.94;31.68
49102;BME280;34913;47.520;19.186;2023-07-08T11:44:43;100362.03;;;30.25;30.51
49102;BME280;34913;47.520;19.186;2023-07-08T11:47:19;100351.69;;;30.44;30.44
49102;BME280;34913;47.520;19.186;2023-07-08T11:49:48;100352.03;;;30.81;29.93
49102;BME280;34913;47.520;19.186;2023-07-08T11:52:18;100350.69;;;30.83;28.81
49102;BME280;34913;47.520;19.186;2023-07-08T11:54:48;100347.00;;;30.95;28.19
49102;BME280;34913;47.520;19.186;2023-07-08T11:57:34;100346.00;;;31.01;27.06
49102;BME280;34913;47.520;19.186;2023-07-08T12:00:17;100337.06;;;30.89;27.48
49102;BME280;34913;47.520;19.186;2023-07-08T12:02:56;100339.91;;;30.77;27.85
49102;BME280;34913;47.520;19.186;2023-07-08T12:05:30;100339.22;;;30.87;30.40
49102;BME280;34913;47.520;19.186;2023-07-08T12:07:57;100334.44;;;31.16;28.51
49102;BME280;34913;47.520;19.186;2023-07-08T12:10:48;100343.56;;;31.04;28.89
49102;BME280;34913;47.520;19.186;2023-07-08T12:13:15;100338.00;;;30.77;29.79
49102;BME280;34913;47.520;19.186;2023-07-08T12:15:42;100332.34;;;30.84;29.45
49102;BME280;34913;47.520;19.186;2023-07-08T12:18:32;100319.53;;;30.90;29.25
49102;BME280;34913;47.520;19.186;2023-07-08T12:21:00;100326.72;;;30.96;28.37
49102;BME280;34913;47.520;19.186;2023-07-08T12:23:27;100333.38;;;31.00;29.57
49102;BME280;34913;47.520;19.186;2023-07-08T12:25:54;100326.44;;;30.92;28.78
49102;BME280;34913;47.520;19.186;2023-07-08T12:28:21;100327.03;;;31.16;28.00
49102;BME280;34913;47.520;19.186;2023-07-08T12:30:48;100317.19;;;30.98;28.33
49102;BME280;34913;47.520;19.186;2023-07-08T12:33:21;100318.16;;;30.53;28.00
49102;BME280;34913;47.520;19.186;2023-07-08T12:35:47;100319.53;;;30.56;28.58
49102;BME280;34913;47.520;19.186;2023-07-08T12:40:44;100318.00;;;30.43;29.28
49102;BME280;34913;47.520;19.186;2023-07-08T12:43:10;100309.00;;;30.48;28.42
49102;BME280;34913;47.520;19.186;2023-07-08T12:45:36;100314.28;;;30.66;28.92
49102;BME280;34913;47.520;19.186;2023-07-08T12:48:02;100321.47;;;30.72;27.20
49102;BME280;34913;47.520;19.186;2023-07-08T12:50:28;100316.34;;;30.76;28.75
49102;BME280;34913;47.520;19.186;2023-07-08T12:52:53;100317.63;;;30.90;28.77
49102;BME280;34913;47.520;19.186;2023-07-08T12:55:19;100309.47;;;30.95;28.65
49102;BME280;34913;47.520;19.186;2023-07-08T12:57:47;100309.41;;;30.56;26.88
49102;BME280;34913;47.520;19.186;2023-07-08T13:00:27;100301.63;;;30.15;28.59
49102;BME280;34913;47.520;19.186;2023-07-08T13:03:14;100304.13;;;30.33;29.27
49102;BME280;34913;47.520;19.186;2023-07-08T13:05:41;100296.00;;;30.21;28.28
49102;BME280;34913;47.520;19.186;2023-07-08T13:08:11;100295.97;;;30.05;28.53
49102;BME280;34913;47.520;19.186;2023-07-08T13:10:37;100294.91;;;30.22;28.65
49102;BME280;34913;47.520;19.186;2023-07-08T13:13:06;100295.13;;;30.04;28.35
49102;BME280;34913;47.520;19.186;2023-07-08T13:15:37;100296.75;;;30.34;29.82
49102;BME280;34913;47.520;19.186;2023-07-08T13:18:05;100293.25;;;30.55;29.30
49102;BME280;34913;47.520;19.186;2023-07-08T13:20:34;100297.59;;;30.68;28.35
49102;BME280;34913;47.520;19.186;2023-07-08T13:23:01;100295.22;;;30.76;26.64
49102;BME280;34913;47.520;19.186;2023-07-08T13:25:30;100291.94;;;30.74;28.64
49102;BME280;34913;47.520;19.186;2023-07-08T13:28:01;100290.91;;;30.47;26.60
49102;BME280;34913;47.520;19.186;2023-07-08T13:30:30;100290.84;;;30.58;27.31
49102;BME280;34913;47.520;19.186;2023-07-08T13:32:57;100288.00;;;30.70;27.95
49102;BME280;34913;47.520;19.186;2023-07-08T13:35:33;100276.63;;;30.62;28.81
49102;BME280;34913;47.520;19.186;2023-07-08T13:38:00;100300.31;;;30.68;28.24